Time;durP1;ratioP1;P1;durP2;ratioP2;P2;SDS_P1;SDS_P2;PMS_P1;PMS_P2;Temp;Humidity;BMP_temperature;BMP_pressure;BME280_temperature;BME280_humidity;BME280_pressure;Samples;Min_cycle;Max_cycle;Signal;HPM_P1;HPM_P2
2022/07/13 00:01:20;;;;;;;6.90;4.20;;;;;;;22.01;62.29;99161.97;5104530;28;20497;-90
2022/07/13 00:03:46;;;;;;;5.57;4.28;;;;;;;22.09;62.67;99171.31;5101967;28;20046;-91
2022/07/13 00:06:11;;;;;;;6.15;4.32;;;;;;;22.10;62.21;99159.53;5101928;28;20035;-89
2022/07/13 00:08:37;;;;;;;5.05;4.13;;;;;;;22.03;62.17;99146.50;5105285;28;20040;-91
2022/07/13 00:11:03;;;;;;;5.25;4.35;;;;;;;22.13;61.75;99158.44;5105331;28;20040;-90
2022/07/13 00:13:29;;;;;;;6.20;4.50;;;;;;;22.12;62.08;99154.00;5103746;28;20119;-90
2022/07/13 00:15:57;;;;;;;6.55;4.30;;;;;;;22.16;62.15;99166.34;5102570;28;20044;-89
2022/07/13 00:18:23;;;;;;;5.97;4.20;;;;;;;22.11;61.61;99147.72;5104803;27;20104;-91
2022/07/13 00:20:49;;;;;;;7.15;4.70;;;;;;;22.19;61.83;99149.06;5105233;28;20044;-90
2022/07/13 00:23:15;;;;;;;7.40;4.47;;;;;;;22.03;61.53;99123.00;5100840;28;20053;-92
2022/07/13 00:25:41;;;;;;;5.50;4.50;;;;;;;22.22;61.63;99157.84;5099960;28;20035;-90
2022/07/13 00:28:06;;;;;;;6.47;4.55;;;;;;;22.11;61.48;99147.72;5101119;28;20417;-90
2022/07/13 00:30:32;;;;;;;6.00;4.10;;;;;;;22.15;61.60;99164.63;5099160;28;20118;-90
2022/07/13 00:32:59;;;;;;;6.70;4.20;;;;;;;21.94;61.77;99140.72;5102979;28;20123;-91
2022/07/13 00:35:25;;;;;;;6.22;4.57;;;;;;;21.91;62.51;99140.09;5100300;28;20039;-91
2022/07/13 00:37:51;;;;;;;5.85;4.50;;;;;;;21.79;62.59;99135.50;5104402;28;20046;-90
2022/07/13 00:40:17;;;;;;;5.85;4.20;;;;;;;21.78;63.32;99150.88;5102585;28;20066;-90
2022/07/13 00:42:43;;;;;;;6.78;4.47;;;;;;;21.72;63.35;99145.88;5102144;28;20507;-91
2022/07/13 00:45:09;;;;;;;6.38;4.72;;;;;;;21.57;64.21;99141.50;5103347;28;20057;-90
2022/07/13 00:47:37;;;;;;;6.20;4.80;;;;;;;21.45;64.23;99135.94;5101740;28;20919;-89
2022/07/13 00:50:07;;;;;;;8.30;4.72;;;;;;;21.50;64.85;99159.97;5101176;28;20036;-89
2022/07/13 00:52:34;;;;;;;7.22;4.97;;;;;;;21.37;65.16;99151.75;5099411;28;20046;-89
2022/07/13 00:55:01;;;;;;;7.20;4.50;;;;;;;21.26;65.57;99146.19;5097949;28;20143;-89
2022/07/13 00:57:28;;;;;;;7.60;5.47;;;;;;;21.17;66.35;99166.56;5098540;28;20047;-89
2022/07/13 00:59:54;;;;;;;8.20;4.82;;;;;;;21.01;66.63;99165.81;5102432;28;20052;-88
2022/07/13 01:02:20;;;;;;;6.78;5.22;;;;;;;20.77;67.40;99160.97;5104583;28;20143;-89
2022/07/13 01:04:45;;;;;;;6.55;4.82;;;;;;;20.66;67.98;99166.19;5102529;28;20046;-89
2022/07/13 01:07:13;;;;;;;7.07;5.20;;;;;;;20.38;68.71;99151.66;5101373;28;20505;-89
2022/07/13 01:09:39;;;;;;;8.23;4.68;;;;;;;20.40;69.47;99162.38;5101890;28;20436;-89
2022/07/13 01:12:05;;;;;;;8.25;5.03;;;;;;;20.31;69.41;99161.97;5100879;28;20031;-90
2022/07/13 01:14:31;;;;;;;7.47;5.10;;;;;;;20.04;70.27;99142.91;5103915;28;20036;-89
2022/07/13 01:16:58;;;;;;;7.00;5.00;;;;;;;19.98;70.70;99158.63;5100198;28;20040;-90
2022/07/13 01:19:24;;;;;;;7.88;5.10;;;;;;;19.90;71.44;99161.75;5102676;28;20048;-90
2022/07/13 01:21:55;;;;;;;6.43;4.80;;;;;;;19.79;72.21;99164.22;5106399;28;20039;-90
2022/07/13 01:24:22;;;;;;;8.52;5.13;;;;;;;19.53;72.76;99144.97;5103115;28;20069;-89
2022/07/13 01:26:48;;;;;;;8.55;5.30;;;;;;;19.42;73.34;99137.50;5105683;28;20040;-89
2022/07/13 01:29:14;;;;;;;6.70;5.05;;;;;;;19.47;73.21;99142.63;5106957;28;20036;-89
2022/07/13 01:31:41;;;;;;;5.97;5.20;;;;;;;19.58;73.84;99167.19;5108140;28;20063;-90
2022/07/13 01:34:08;;;;;;;7.22;5.00;;;;;;;19.56;73.74;99162.81;5104367;28;20366;-89
2022/07/13 01:36:35;;;;;;;6.57;4.88;;;;;;;19.52;73.95;99155.84;5101151;28;20051;-89
2022/07/13 01:39:02;;;;;;;10.32;4.90;;;;;;;19.52;73.72;99150.44;5105781;28;20042;-90
2022/07/13 01:41:30;;;;;;;6.75;4.85;;;;;;;19.58;73.96;99163.59;5103640;28;20044;-89
2022/07/13 01:43:57;;;;;;;5.65;4.35;;;;;;;19.53;73.98;99163.00;5102656;28;20060;-90
2022/07/13 01:46:23;;;;;;;6.97;5.28;;;;;;;19.36;73.80;99164.81;5102642;28;20052;-90
2022/07/13 01:48:49;;;;;;;6.72;4.72;;;;;;;19.26;74.68;99161.78;5103046;28;20490;-90
2022/07/13 01:51:14;;;;;;;6.03;4.93;;;;;;;19.31;75.15;99188.50;5103198;27;20035;-90
2022/07/13 01:53:41;;;;;;;6.88;5.35;;;;;;;19.20;75.44;99163.97;5101693;28;20047;-88
2022/07/13 01:56:07;;;;;;;7.85;5.15;;;;;;;19.20;75.32;99166.66;5104831;28;20046;-89
2022/07/13 01:58:34;;;;;;;6.18;5.07;;;;;;;19.17;75.72;99170.41;5105741;28;20392;-89
2022/07/13 02:01:00;;;;;;;6.80;5.00;;;;;;;19.06;76.63;99162.03;5105474;28;20047;-89
2022/07/13 02:03:28;;;;;;;6.20;5.20;;;;;;;19.21;75.65;99179.16;5104202;27;20413;-89
2022/07/13 02:05:58;;;;;;;7.15;4.80;;;;;;;19.21;76.69;99181.88;5099027;28;20077;-90
2022/07/13 02:08:24;;;;;;;7.10;5.20;;;;;;;19.19;76.60;99168.50;5101415;28;20123;-90
2022/07/13 02:10:50;;;;;;;6.32;5.05;;;;;;;19.25;77.21;99180.75;5103111;28;20032;-90
2022/07/13 02:13:16;;;;;;;6.78;5.57;;;;;;;19.24;76.52;99157.44;5100765;28;20092;-89
2022/07/13 02:15:43;;;;;;;10.10;5.93;;;;;;;19.31;76.53;99152.56;5104685;27;20040;-90
2022/07/13 02:18:09;;;;;;;7.00;5.20;;;;;;;19.57;75.70;99170.81;5104414;28;20100;-90
2022/07/13 02:20:35;;;;;;;7.22;5.38;;;;;;;19.56;75.77;99163.69;5103236;28;20040;-89
2022/07/13 02:23:01;;;;;;;7.25;5.35;;;;;;;19.72;74.70;99168.25;5104466;27;20047;-90
2022/07/13 02:25:27;;;;;;;6.63;5.63;;;;;;;19.84;73.43;99163.00;5106412;28;20035;-91
2022/07/13 02:27:53;;;;;;;6.60;5.18;;;;;;;19.69;73.46;99142.25;5106111;28;20104;-90
2022/07/13 02:30:19;;;;;;;6.18;5.00;;;;;;;19.75;73.21;99141.94;5102651;28;20044;-90
2022/07/13 02:32:46;;;;;;;6.60;4.88;;;;;;;19.84;73.24;99154.00;5101248;28;20038;-91
2022/07/13 02:35:13;;;;;;;8.75;5.32;;;;;;;19.92;73.71;99167.06;5103061;28;20067;-90
2022/07/13 02:37:39;;;;;;;7.38;4.85;;;;;;;19.89;73.54;99173.53;5102305;28;20089;-90
2022/07/13 02:40:07;;;;;;;7.97;5.20;;;;;;;19.88;73.30;99169.06;5106140;27;20088;-90
2022/07/13 02:42:33;;;;;;;6.47;5.00;;;;;;;19.79;72.26;99143.50;5100677;28;20062;-90
2022/07/13 02:44:59;;;;;;;6.32;4.90;;;;;;;20.06;70.82;99157.19;5101991;28;20145;-89
2022/07/13 02:47:25;;;;;;;6.43;5.03;;;;;;;20.10;70.61;99141.66;5104291;28;20042;-90
2022/07/13 02:49:52;;;;;;;7.82;5.38;;;;;;;20.28;69.55;99143.25;5101444;27;20040;-89
2022/07/13 02:52:18;;;;;;;8.40;4.63;;;;;;;20.34;69.21;99157.34;5097811;28;20060;-90
2022/07/13 02:54:44;;;;;;;7.13;4.85;;;;;;;20.28;69.49;99139.69;5103364;28;20066;-89
2022/07/13 02:57:10;;;;;;;6.90;5.20;;;;;;;20.35;69.45;99165.34;5103193;28;20427;-90
2022/07/13 02:59:36;;;;;;;7.15;5.40;;;;;;;20.26;68.83;99152.41;5101211;28;20039;-91
2022/07/13 03:02:03;;;;;;;6.82;4.90;;;;;;;20.32;68.81;99168.25;5104510;27;20051;-90
2022/07/13 03:04:29;;;;;;;6.78;5.22;;;;;;;20.18;68.94;99144.78;5098166;27;20067;-90
2022/07/13 03:06:56;;;;;;;8.88;5.00;;;;;;;20.14;69.01;99121.63;5106186;27;20074;-90
2022/07/13 03:09:23;;;;;;;7.30;4.70;;;;;;;20.27;68.75;99160.41;5106349;28;20047;-91
2022/07/13 03:11:49;;;;;;;6.85;4.80;;;;;;;20.36;68.28;99169.78;5103904;28;20389;-90
2022/07/13 03:14:14;;;;;;;6.57;4.60;;;;;;;20.29;68.66;99163.88;5103642;28;20035;-90
2022/07/13 03:16:40;;;;;;;6.32;5.00;;;;;;;20.30;68.31;99157.53;5103556;28;20054;-91
2022/07/13 03:19:07;;;;;;;6.70;5.05;;;;;;;20.31;68.58;99182.72;5103243;28;20040;-90
2022/07/13 03:21:33;;;;;;;6.95;4.70;;;;;;;20.28;68.38;99161.31;5102728;27;20124;-91
2022/07/13 03:24:00;;;;;;;5.32;4.45;;;;;;;20.36;68.04;99177.03;5102937;28;20623;-90
2022/07/13 03:26:26;;;;;;;6.72;4.55;;;;;;;20.29;67.88;99173.81;5102198;28;20051;-88
2022/07/13 03:28:52;;;;;;;6.18;4.72;;;;;;;20.27;68.23;99176.59;5104168;28;20031;-91
2022/07/13 03:31:18;;;;;;;6.32;4.90;;;;;;;20.30;68.03;99170.19;5102613;28;20527;-90
2022/07/13 03:33:44;;;;;;;6.93;4.78;;;;;;;20.27;67.89;99173.03;5105498;27;20047;-90
2022/07/13 03:36:10;;;;;;;5.25;4.70;;;;;;;20.24;68.19;99181.34;5102538;28;20039;-91
2022/07/13 03:38:36;;;;;;;9.20;4.88;;;;;;;20.28;68.57;99199.09;5100428;28;20040;-89
2022/07/13 03:41:03;;;;;;;6.20;4.70;;;;;;;20.20;68.67;99196.84;5103136;28;20032;-89
2022/07/13 03:43:29;;;;;;;5.55;4.78;;;;;;;20.17;69.07;99207.84;5103619;28;20044;-90
2022/07/13 03:45:55;;;;;;;7.32;4.97;;;;;;;20.13;69.17;99200.88;5101429;28;20043;-91
2022/07/13 03:48:21;;;;;;;6.28;5.20;;;;;;;20.11;68.64;99186.59;5102887;28;20039;-90
2022/07/13 03:50:47;;;;;;;6.28;4.70;;;;;;;20.17;68.69;99202.44;5100949;28;20046;-89
2022/07/13 03:53:13;;;;;;;5.85;4.80;;;;;;;20.19;68.56;99199.63;5104166;28;20055;-92
2022/07/13 03:55:39;;;;;;;8.73;4.95;;;;;;;20.18;67.88;99198.78;5098491;28;20035;-92
2022/07/13 03:58:06;;;;;;;7.13;5.05;;;;;;;20.20;67.40;99190.59;5104839;28;20145;-91
2022/07/13 04:00:32;;;;;;;6.28;4.85;;;;;;;20.23;67.16;99193.09;5098941;28;20108;-91
2022/07/13 04:02:58;;;;;;;7.65;5.05;;;;;;;20.25;67.33;99205.53;5103552;28;20170;-89
2022/07/13 04:05:24;;;;;;;5.60;4.82;;;;;;;20.21;67.16;99206.72;5100412;28;20032;-92
2022/07/13 04:07:50;;;;;;;6.55;4.60;;;;;;;20.08;66.85;99167.88;5104639;28;20048;-91
2022/07/13 04:10:19;;;;;;;6.32;4.63;;;;;;;20.23;67.12;99201.19;5107639;28;20050;-90
2022/07/13 04:12:45;;;;;;;7.65;5.05;;;;;;;20.13;66.82;99183.81;5105088;28;20059;-90
2022/07/13 04:15:13;;;;;;;5.97;4.43;;;;;;;20.19;67.00;99195.13;5106864;28;20112;-89
2022/07/13 04:17:40;;;;;;;5.07;4.20;;;;;;;20.12;66.94;99182.94;5103183;28;20046;-88
2022/07/13 04:20:07;;;;;;;6.13;4.80;;;;;;;20.10;66.72;99185.75;5104422;28;20071;-90
2022/07/13 04:22:33;;;;;;;5.88;4.53;;;;;;;20.17;67.25;99196.16;5101458;28;20039;-91
2022/07/13 04:24:59;;;;;;;5.43;4.45;;;;;;;20.22;67.17;99215.69;5105691;28;20073;-90
2022/07/13 04:27:25;;;;;;;8.05;5.00;;;;;;;20.19;67.34;99207.75;5102589;28;20047;-89
2022/07/13 04:29:52;;;;;;;8.60;4.38;;;;;;;20.23;67.08;99212.91;5103095;28;20032;-89
2022/07/13 04:32:19;;;;;;;6.22;4.45;;;;;;;20.30;66.77;99227.75;5103532;28;20074;-89
2022/07/13 04:34:45;;;;;;;5.50;4.85;;;;;;;20.29;67.10;99223.31;5101420;28;20116;-90
2022/07/13 04:37:10;;;;;;;5.72;4.40;;;;;;;20.26;67.13;99215.41;5102771;28;20462;-92
2022/07/13 04:39:38;;;;;;;7.72;4.38;;;;;;;20.29;66.72;99226.00;5099963;28;20048;-90
2022/07/13 04:42:04;;;;;;;7.03;4.93;;;;;;;20.36;66.63;99228.34;5099863;28;20092;-91
2022/07/13 04:44:30;;;;;;;5.05;4.00;;;;;;;20.35;66.36;99226.63;5100203;28;20069;-91
2022/07/13 04:46:56;;;;;;;5.80;4.50;;;;;;;20.52;65.51;99237.28;5103064;28;20043;-91
2022/07/13 04:49:23;;;;;;;5.63;4.32;;;;;;;20.57;65.59;99231.59;5101841;28;20040;-90
2022/07/13 04:51:50;;;;;;;6.32;4.63;;;;;;;20.54;65.38;99219.13;5102079;28;20032;-90
2022/07/13 04:54:16;;;;;;;8.68;4.40;;;;;;;20.66;64.78;99236.47;5104282;28;20035;-90
2022/07/13 04:56:42;;;;;;;5.88;4.10;;;;;;;20.59;64.81;99219.75;5106516;28;20042;-90
2022/07/13 04:59:08;;;;;;;7.95;4.57;;;;;;;20.75;64.67;99241.28;5107365;28;20102;-89
2022/07/13 05:01:33;;;;;;;7.13;4.75;;;;;;;20.78;64.51;99245.66;5106990;28;20051;-90
2022/07/13 05:04:00;;;;;;;6.30;4.45;;;;;;;20.79;64.20;99240.13;5101068;28;20040;-88
2022/07/13 05:06:27;;;;;;;4.85;4.28;;;;;;;20.96;63.68;99249.91;5104846;28;20042;-90
2022/07/13 05:08:53;;;;;;;6.03;4.30;;;;;;;21.22;63.14;99252.81;5105916;28;20039;-90
2022/07/13 05:11:19;;;;;;;7.47;4.55;;;;;;;21.98;60.85;99260.56;5105065;28;20032;-90
2022/07/13 05:13:45;;;;;;;6.28;3.90;;;;;;;22.35;59.60;99244.56;5104938;28;20040;-90
2022/07/13 05:16:11;;;;;;;4.80;3.85;;;;;;;23.02;57.46;99266.19;5108107;28;20039;-90
2022/07/13 05:18:37;;;;;;;5.57;3.78;;;;;;;22.92;57.05;99259.63;5102180;28;20039;-90
2022/07/13 05:21:03;;;;;;;5.15;3.63;;;;;;;22.88;57.26;99248.13;5102302;28;20763;-90
2022/07/13 05:23:31;;;;;;;6.03;3.70;;;;;;;23.29;56.07;99263.34;5103474;28;20040;-90
2022/07/13 05:25:57;;;;;;;6.38;3.80;;;;;;;23.31;55.07;99260.50;5102341;28;20075;-91
2022/07/13 05:28:23;;;;;;;6.10;4.03;;;;;;;23.33;54.97;99266.69;5106616;28;20066;-89
2022/07/13 05:30:49;;;;;;;5.47;3.58;;;;;;;23.43;55.18;99262.34;5107846;28;20078;-90
2022/07/13 05:33:15;;;;;;;4.35;3.55;;;;;;;23.47;54.77;99265.72;5107963;28;21310;-90
2022/07/13 05:35:41;;;;;;;4.85;3.72;;;;;;;23.78;53.72;99258.94;5106559;27;20526;-90
2022/07/13 05:38:07;;;;;;;4.93;3.67;;;;;;;24.07;52.48;99251.34;5102287;28;20044;-90
2022/07/13 05:40:34;;;;;;;5.65;3.65;;;;;;;23.92;52.52;99266.94;5106251;28;20035;-90
2022/07/13 05:43:00;;;;;;;3.85;3.17;;;;;;;24.15;52.05;99269.78;5105678;28;20052;-90
2022/07/13 05:45:25;;;;;;;6.10;3.50;;;;;;;24.39;50.91;99256.16;5102799;28;20371;-89
2022/07/13 05:47:51;;;;;;;5.43;3.30;;;;;;;24.41;50.57;99248.78;5102175;28;20042;-92
2022/07/13 05:50:17;;;;;;;3.80;3.25;;;;;;;24.70;50.12;99262.88;5106036;28;20043;-89
2022/07/13 05:52:43;;;;;;;5.28;3.10;;;;;;;23.75;51.05;99251.00;5104131;27;20040;-90
2022/07/13 05:55:10;;;;;;;3.70;3.30;;;;;;;24.15;51.49;99264.34;5105703;28;20046;-92
2022/07/13 05:57:37;;;;;;;3.90;3.33;;;;;;;23.68;51.58;99255.13;5105110;28;20040;-93
2022/07/13 06:00:06;;;;;;;5.80;3.55;;;;;;;23.85;51.73;99265.63;5110347;28;21489;-91
2022/07/13 06:02:31;;;;;;;;;;;;;;;24.37;51.31;99279.88;5109165;27;20096;-93
2022/07/13 06:04:57;;;;;;;4.50;3.40;;;;;;;24.78;49.28;99289.47;5110758;27;19928;-94
2022/07/13 06:07:24;;;;;;;4.25;3.40;;;;;;;24.82;49.32;99273.78;5108880;27;20493;-92
2022/07/13 06:09:50;;;;;;;5.05;3.50;;;;;;;24.68;48.56;99281.16;5106040;28;20036;-93
2022/07/13 06:12:15;;;;;;;4.97;3.42;;;;;;;24.28;49.46;99270.59;5101316;28;20035;-91
2022/07/13 06:14:42;;;;;;;5.05;3.30;;;;;;;24.54;48.84;99294.94;5103824;28;20040;-90
2022/07/13 06:17:08;;;;;;;4.13;3.30;;;;;;;24.68;48.35;99283.91;5101251;28;20494;-91
2022/07/13 06:19:34;;;;;;;4.28;3.13;;;;;;;24.79;47.88;99275.75;5103591;27;20119;-91
2022/07/13 06:22:00;;;;;;;3.60;3.10;;;;;;;24.21;47.45;99301.94;5106072;27;20043;-90
2022/07/13 06:24:26;;;;;;;4.20;3.38;;;;;;;24.30;48.70;99294.94;5104646;28;20493;-95
2022/07/13 06:26:52;;;;;;;4.70;3.40;;;;;;;24.24;48.79;99301.69;5107510;28;20496;-91
2022/07/13 06:29:17;;;;;;;6.18;3.80;;;;;;;24.29;47.88;99283.19;5105459;28;20517;-92
2022/07/13 06:31:45;;;;;;;5.00;3.20;;;;;;;24.23;47.08;99286.38;5105277;27;20131;-90
2022/07/13 06:34:10;;;;;;;5.88;3.17;;;;;;;24.43;47.49;99292.16;5102945;27;20044;-90
2022/07/13 06:36:38;;;;;;;5.28;3.40;;;;;;;24.29;46.77;99307.66;5109313;27;20043;-91
2022/07/13 06:39:04;;;;;;;5.37;3.30;;;;;;;24.47;47.63;99291.81;5108667;28;20040;-91
2022/07/13 06:41:30;;;;;;;4.75;3.25;;;;;;;24.77;47.17;99307.66;5105466;28;20326;-91
2022/07/13 06:43:56;;;;;;;4.07;3.22;;;;;;;24.86;45.24;99287.03;5103390;28;20040;-91
2022/07/13 06:46:23;;;;;;;4.43;3.15;;;;;;;25.14;45.15;99301.19;5102403;28;20126;-91
2022/07/13 06:48:50;;;;;;;4.03;3.08;;;;;;;25.08;44.66;99293.50;5106452;28;20096;-91
2022/07/13 06:51:15;;;;;;;6.18;3.10;;;;;;;25.09;44.93;99287.06;5107653;27;20062;-93
2022/07/13 06:53:41;;;;;;;3.70;3.15;;;;;;;24.71;45.22;99299.97;5105661;28;20152;-91
2022/07/13 06:56:07;;;;;;;4.60;3.17;;;;;;;24.69;45.92;99309.22;5108254;28;20036;-92
2022/07/13 06:58:33;;;;;;;3.35;2.80;;;;;;;24.74;46.26;99302.44;5109026;28;20058;-90
2022/07/13 07:00:59;;;;;;;5.00;3.20;;;;;;;25.01;45.25;99310.31;5103176;28;20062;-92
2022/07/13 07:03:24;;;;;;;5.03;3.38;;;;;;;24.89;45.76;99304.97;5104721;28;20039;-90
2022/07/13 07:05:52;;;;;;;4.63;3.20;;;;;;;24.99;44.47;99295.09;5103679;28;20048;-92
2022/07/13 07:08:17;;;;;;;3.95;3.05;;;;;;;25.04;45.02;99295.59;5104752;28;20188;-91
2022/07/13 07:10:43;;;;;;;3.63;3.17;;;;;;;25.12;44.37;99309.47;5107050;27;21039;-93
2022/07/13 07:13:09;;;;;;;4.53;3.22;;;;;;;25.32;43.89;99288.00;5109810;27;20114;-94
2022/07/13 07:15:35;;;;;;;5.03;3.05;;;;;;;25.21;43.56;99283.41;5104668;28;20449;-91
2022/07/13 07:18:01;;;;;;;4.68;3.20;;;;;;;25.30;44.05;99301.72;5107827;28;20397;-94
2022/07/13 07:20:27;;;;;;;5.00;3.15;;;;;;;25.14;43.73;99268.53;5106318;28;20031;-94
2022/07/13 07:22:55;;;;;;;4.25;3.17;;;;;;;25.54;43.55;99290.72;5105881;28;20044;-92
2022/07/13 07:25:21;;;;;;;4.57;3.20;;;;;;;25.94;42.48;99301.13;5107440;28;20079;-91
2022/07/13 07:27:48;;;;;;;4.40;3.15;;;;;;;25.97;40.07;99281.78;5103154;27;20109;-91
2022/07/13 07:30:14;;;;;;;4.45;2.90;;;;;;;26.05;40.79;99292.06;5102701;28;20054;-91
2022/07/13 07:32:40;;;;;;;6.38;3.28;;;;;;;26.19;40.24;99294.50;5107709;27;20036;-92
2022/07/13 07:35:06;;;;;;;6.15;3.00;;;;;;;26.61;38.98;99296.53;5102562;28;20895;-93
2022/07/13 07:37:33;;;;;;;4.95;3.20;;;;;;;26.75;39.38;99290.72;5109550;28;20048;-90
2022/07/13 07:40:00;;;;;;;4.70;3.15;;;;;;;26.99;38.41;99304.13;5102486;28;20115;-91
2022/07/13 07:42:26;;;;;;;6.22;3.22;;;;;;;26.93;38.73;99304.63;5100714;28;20496;-90
2022/07/13 07:44:52;;;;;;;4.30;2.85;;;;;;;26.74;38.13;99316.28;5104423;28;20039;-92
2022/07/13 07:47:22;;;;;;;4.60;2.65;;;;;;;27.12;37.27;99289.41;5105266;28;20041;-91
2022/07/13 07:49:48;;;;;;;4.75;3.00;;;;;;;27.42;36.29;99296.78;5102584;28;20044;-90
2022/07/13 07:52:14;;;;;;;4.68;2.47;;;;;;;26.98;35.98;99290.63;5100782;27;20052;-92
2022/07/13 07:54:39;;;;;;;3.72;2.88;;;;;;;26.98;36.62;99309.72;5106083;28;20484;-92
2022/07/13 07:57:07;;;;;;;4.10;2.58;;;;;;;27.22;35.44;99299.41;5107924;28;20118;-91
2022/07/13 07:59:32;;;;;;;4.35;2.70;;;;;;;27.28;35.18;99284.34;5103121;28;20432;-91
2022/07/13 08:01:59;;;;;;;4.53;2.58;;;;;;;27.35;34.63;99292.88;5109236;28;20032;-91
2022/07/13 08:04:24;;;;;;;2.97;2.53;;;;;;;27.76;34.78;99280.09;5106791;28;20043;-90
2022/07/13 08:06:50;;;;;;;4.78;2.35;;;;;;;27.94;34.46;99286.69;5106002;28;20036;-91
2022/07/13 08:09:16;;;;;;;3.13;2.65;;;;;;;27.54;34.26;99300.28;5105442;28;20515;-88
2022/07/13 08:11:42;;;;;;;4.78;2.53;;;;;;;27.43;34.80;99310.31;5107869;28;20074;-92
2022/07/13 08:14:09;;;;;;;4.22;2.50;;;;;;;27.71;33.96;99285.97;5102142;28;20032;-91
2022/07/13 08:16:35;;;;;;;4.68;2.47;;;;;;;27.48;34.69;99279.88;5108071;27;20100;-92
2022/07/13 08:19:06;;;;;;;4.00;2.63;;;;;;;27.44;35.02;99270.22;5104109;28;20504;-92
2022/07/13 08:21:34;;;;;;;4.35;2.63;;;;;;;27.54;34.30;99295.72;5104002;28;20062;-90
2022/07/13 08:23:59;;;;;;;2.88;2.42;;;;;;;27.83;33.57;99279.41;5104638;28;20105;-90
2022/07/13 08:26:27;;;;;;;3.08;2.20;;;;;;;27.93;33.45;99289.53;5104986;28;20489;-91
2022/07/13 08:28:54;;;;;;;3.15;2.50;;;;;;;28.14;32.96;99267.59;5108541;28;20035;-91
2022/07/13 08:31:23;;;;;;;3.97;2.53;;;;;;;28.32;33.17;99286.88;5104592;28;20049;-92
2022/07/13 08:39:47;;;;;;;4.63;2.70;;;;;;;28.71;31.72;99293.25;5052541;27;20439;-93
2022/07/13 08:42:13;;;;;;;3.22;2.50;;;;;;;28.96;31.55;99264.44;5055170;28;20052;-93
2022/07/13 08:44:39;;;;;;;3.30;2.65;;;;;;;29.34;30.95;99272.72;5053432;28;20039;-95
2022/07/13 08:47:06;;;;;;;3.85;2.65;;;;;;;28.51;31.31;99278.72;5055266;28;20030;-91
2022/07/13 08:49:32;;;;;;;4.13;2.45;;;;;;;27.93;32.37;99279.47;5054479;28;20083;-93
2022/07/13 08:51:59;;;;;;;2.97;2.33;;;;;;;28.03;32.43;99268.56;5054394;28;20056;-91
2022/07/13 08:54:24;;;;;;;3.40;2.33;;;;;;;28.27;31.82;99287.31;5055208;28;20052;-90
2022/07/13 08:56:52;;;;;;;3.38;2.60;;;;;;;28.47;32.30;99258.09;5051415;28;20041;-92
2022/07/13 08:59:18;;;;;;;3.55;2.40;;;;;;;28.73;32.01;99299.44;5054916;28;20043;-92
2022/07/13 09:01:49;;;;;;;3.75;2.40;;;;;;;28.84;30.73;99288.38;5056666;28;20482;-92
2022/07/13 09:04:28;;;;;;;4.47;2.40;;;;;;;28.65;31.16;99281.03;5054852;28;20045;-91
2022/07/13 09:06:56;;;;;;;2.92;2.30;;;;;;;29.19;30.76;99272.34;5049549;28;20629;-92
2022/07/13 09:09:31;;;;;;;5.28;2.47;;;;;;;28.60;31.18;99258.69;5053008;28;20038;-93
2022/07/13 09:12:17;;;;;;;4.20;2.50;;;;;;;29.17;31.64;99288.94;5048097;28;20053;-92
2022/07/13 09:14:49;;;;;;;3.15;2.47;;;;;;;29.47;29.94;99273.25;5052741;28;20068;-92
2022/07/13 09:17:31;;;;;;;2.83;2.22;;;;;;;30.02;29.87;99284.28;5057042;28;20079;-90
2022/07/13 09:19:58;;;;;;;3.88;2.60;;;;;;;29.90;29.28;99266.31;5052115;28;20091;-90
2022/07/13 09:22:24;;;;;;;2.92;2.45;;;;;;;29.64;29.62;99263.38;5052371;28;20045;-91
2022/07/13 09:24:51;;;;;;;3.35;2.35;;;;;;;29.54;30.28;99262.53;5050270;28;20041;-90
2022/07/13 09:27:18;;;;;;;3.90;2.42;;;;;;;29.86;29.81;99267.63;5055659;28;20052;-89
2022/07/13 09:29:44;;;;;;;3.03;2.20;;;;;;;29.80;28.50;99280.06;5051672;28;20498;-92
2022/07/13 09:32:12;;;;;;;2.60;2.22;;;;;;;29.65;29.71;99289.78;5053097;28;20039;-90
2022/07/13 09:34:51;;;;;;;3.10;2.30;;;;;;;29.14;30.80;99261.81;5054207;28;20045;-92
2022/07/13 09:37:18;;;;;;;2.83;2.25;;;;;;;28.99;30.13;99286.03;5050168;28;20562;-90
2022/07/13 09:40:01;;;;;;;5.35;2.33;;;;;;;29.64;30.06;99274.34;5055329;28;20056;-93
2022/07/13 09:42:31;;;;;;;2.95;2.38;;;;;;;29.74;29.78;99279.81;5053155;28;20406;-91
2022/07/13 09:47:53;;;;;;;3.25;2.30;;;;;;;30.19;28.24;99259.75;5106833;27;20391;-91
2022/07/13 09:50:20;;;;;;;2.88;2.38;;;;;;;30.25;28.07;99256.41;5070713;28;20049;-93
2022/07/13 09:52:47;;;;;;;3.08;2.25;;;;;;;30.06;27.59;99249.19;5074162;28;20431;-92
2022/07/13 09:55:19;;;;;;;5.05;2.53;;;;;;;30.04;28.49;99253.97;5075858;28;20124;-94
2022/07/13 09:57:47;;;;;;;3.85;2.40;;;;;;;30.01;27.90;99252.38;5071334;28;20131;-93
2022/07/13 10:00:17;;;;;;;3.47;2.17;;;;;;;30.14;28.58;99252.00;5073289;28;20080;-94
2022/07/13 10:02:45;;;;;;;2.45;1.95;;;;;;;30.35;27.55;99254.50;5070146;28;20497;-92
2022/07/13 10:05:13;;;;;;;2.60;2.10;;;;;;;30.29;27.06;99250.47;5069993;28;20132;-93
2022/07/13 10:07:41;;;;;;;2.97;2.20;;;;;;;30.34;26.65;99239.06;5072992;28;20044;-93
2022/07/13 10:10:07;;;;;;;2.97;2.43;;;;;;;30.53;26.39;99254.47;5078701;28;20041;-94
2022/07/13 10:12:34;;;;;;;3.45;2.47;;;;;;;30.47;27.39;99238.63;5073122;28;20433;-96
2022/07/13 10:15:00;;;;;;;2.53;2.10;;;;;;;30.63;26.57;99251.66;5071728;28;20036;-92
2022/07/13 10:17:26;;;;;;;3.35;2.35;;;;;;;30.54;27.15;99260.84;5073800;28;20060;-93
2022/07/13 10:20:02;;;;;;;3.28;2.40;;;;;;;30.54;27.39;99236.16;5072625;28;20067;-92
2022/07/13 10:22:34;;;;;;;4.07;2.47;;;;;;;29.90;26.91;99250.69;5081504;28;20037;-92
2022/07/13 10:25:00;;;;;;;2.60;2.17;;;;;;;30.34;27.05;99252.78;5075467;28;20064;-92
2022/07/13 10:27:28;;;;;;;3.20;2.40;;;;;;;30.06;27.03;99243.72;5073545;28;20037;-92
2022/07/13 10:29:55;;;;;;;2.73;2.27;;;;;;;29.93;25.99;99238.59;5074286;28;20037;-93
2022/07/13 10:32:21;;;;;;;2.80;2.30;;;;;;;30.07;26.65;99253.66;5074652;28;20494;-91
2022/07/13 10:34:52;;;;;;;3.80;2.40;;;;;;;29.76;25.10;99247.63;5072930;28;20443;-94
2022/07/13 10:37:18;;;;;;;2.67;2.10;;;;;;;29.77;25.43;99238.38;5070546;28;20036;-91
2022/07/13 10:40:13;;;;;;;2.20;2.00;;;;;;;30.24;26.11;99257.44;5072224;28;20094;-92
2022/07/13 10:43:11;;;;;;;3.10;2.30;;;;;;;29.88;26.21;99246.41;5071156;28;20037;-91
2022/07/13 10:45:38;;;;;;;3.63;2.47;;;;;;;29.81;26.31;99237.06;5074026;28;20160;-92
2022/07/13 10:48:06;;;;;;;3.05;2.28;;;;;;;30.17;25.08;99232.50;5068792;28;20037;-93
2022/07/13 10:50:43;;;;;;;2.60;2.08;;;;;;;30.55;24.09;99226.88;5072193;28;20047;-92
2022/07/13 10:53:09;;;;;;;3.58;2.20;;;;;;;30.60;24.14;99210.78;5071318;28;20040;-91
2022/07/13 10:55:41;;;;;;;2.63;2.20;;;;;;;30.87;23.73;99229.06;5076606;28;20471;-93
2022/07/13 10:58:43;;;;;;;3.50;2.30;;;;;;;30.52;24.20;99230.81;5064418;28;20087;-91
2022/07/13 11:01:43;;;;;;;2.55;2.22;;;;;;;30.61;24.14;99232.59;5017240;28;20072;-92
2022/07/13 11:04:11;;;;;;;2.53;2.10;;;;;;;29.85;24.94;99225.63;5017534;28;20120;-92
2022/07/13 11:06:38;;;;;;;2.67;2.28;;;;;;;30.25;24.11;99228.97;5019696;28;20104;-93
2022/07/13 11:09:13;;;;;;;3.15;2.20;;;;;;;30.45;23.09;99227.84;5017930;28;20045;-93
2022/07/13 11:11:51;;;;;;;3.38;2.30;;;;;;;30.24;23.34;99233.59;5020283;28;20041;-93
2022/07/13 11:14:59;;;;;;;2.70;2.10;;;;;;;29.96;23.09;99223.72;5015057;28;20037;-92
2022/07/13 11:17:27;;;;;;;2.95;2.33;;;;;;;30.55;24.37;99219.50;5017628;28;20034;-91
2022/07/13 11:20:01;;;;;;;2.75;2.20;;;;;;;30.70;22.75;99217.91;5015813;28;20936;-91
2022/07/13 11:25:13;;;;;;;3.15;2.13;;;;;;;30.42;23.13;99202.59;5015142;28;20041;-91
2022/07/13 11:25:30;;;;;;;2.50;2.07;;;;;;;30.67;23.04;99206.41;5001672;28;20054;-93
2022/07/13 11:28:05;;;;;;;3.72;2.28;;;;;;;30.68;22.51;99210.84;5015923;28;20033;-94
2022/07/13 11:30:34;;;;;;;2.85;2.00;;;;;;;30.76;22.73;99191.72;5017102;28;20048;-92
2022/07/13 11:33:01;;;;;;;2.42;2.00;;;;;;;30.90;22.07;99193.91;5017041;28;20499;-91
2022/07/13 11:35:27;;;;;;;2.55;2.00;;;;;;;31.11;22.71;99185.28;5016218;28;20084;-92
2022/07/13 11:37:53;;;;;;;2.72;2.10;;;;;;;31.37;21.57;99202.75;5041400;28;20040;-94
2022/07/13 11:40:30;;;;;;;2.50;1.90;;;;;;;31.56;22.03;99190.69;5059747;28;20044;-93
2022/07/13 11:43:00;;;;;;;2.58;2.00;;;;;;;31.77;21.26;99182.81;5061318;28;20040;-92
2022/07/13 11:45:28;;;;;;;2.42;2.00;;;;;;;31.95;21.72;99185.47;5054055;28;20045;-91